Butte Larose, Louisiana
Current Conditions -  °F | °C
As of 9:53 AM on Wednesday 28 Jan 2015 (Local Time) from KLFT Reporting Station
Clear Clear  
Wind Chill: 60°   Ceiling: Unl
Heat Index: 60°   Visibility: 10mi
Dew Point: 39°   Wind: 8mph
Humidity: 46%   Direction: 110°ESE
Pressure: 30.26"   Gusts: NA
Location:  30.2731°N, 91.9325°W
Report Text: KLFT 281553Z 11007KT 10SM CLR 16/04 A3026 RMK AO2 SLP247 T01560039
Loading
Personal Weather Stations






























Interactive Weather Map New forecast layout! Learn more

10-Day Weather Forecast

Advertisements
Track Severe Weather on mobile